sensor_id;sensor_type;location;lat;lon;timestamp;P1;durP1;ratioP1;P2;durP2;ratioP2
44270;SDS011;29963;44.594;11.368;2022-07-23T00:01:30;8.65;;;7.78;;
44270;SDS011;29963;44.594;11.368;2022-07-23T00:03:56;9.32;;;8.43;;
44270;SDS011;29963;44.594;11.368;2022-07-23T00:06:22;11.38;;;8.50;;
44270;SDS011;29963;44.594;11.368;2022-07-23T00:08:48;12.57;;;8.25;;
44270;SDS011;29963;44.594;11.368;2022-07-23T00:11:14;9.27;;;8.38;;
44270;SDS011;29963;44.594;11.368;2022-07-23T00:13:40;10.50;;;8.50;;
44270;SDS011;29963;44.594;11.368;2022-07-23T00:16:09;10.85;;;8.95;;
44270;SDS011;29963;44.594;11.368;2022-07-23T00:18:34;11.45;;;8.20;;
44270;SDS011;29963;44.594;11.368;2022-07-23T00:21:00;13.07;;;9.75;;
44270;SDS011;29963;44.594;11.368;2022-07-23T00:23:26;18.83;;;9.50;;
44270;SDS011;29963;44.594;11.368;2022-07-23T00:25:54;13.25;;;8.30;;
44270;SDS011;29963;44.594;11.368;2022-07-23T00:28:20;10.70;;;8.85;;
44270;SDS011;29963;44.594;11.368;2022-07-23T00:30:46;13.32;;;10.02;;
44270;SDS011;29963;44.594;11.368;2022-07-23T00:33:12;12.93;;;10.13;;
44270;SDS011;29963;44.594;11.368;2022-07-23T00:35:39;12.32;;;8.63;;
44270;SDS011;29963;44.594;11.368;2022-07-23T00:38:06;11.13;;;9.93;;
44270;SDS011;29963;44.594;11.368;2022-07-23T00:40:36;12.02;;;10.45;;
44270;SDS011;29963;44.594;11.368;2022-07-23T00:43:03;14.68;;;10.40;;
44270;SDS011;29963;44.594;11.368;2022-07-23T00:45:29;11.40;;;10.07;;
44270;SDS011;29963;44.594;11.368;2022-07-23T00:47:55;9.63;;;8.57;;
44270;SDS011;29963;44.594;11.368;2022-07-23T00:50:21;11.13;;;8.57;;
44270;SDS011;29963;44.594;11.368;2022-07-23T00:52:47;12.07;;;9.63;;
44270;SDS011;29963;44.594;11.368;2022-07-23T00:55:13;12.10;;;9.18;;
44270;SDS011;29963;44.594;11.368;2022-07-23T00:57:39;11.20;;;9.32;;
44270;SDS011;29963;44.594;11.368;2022-07-23T01:00:07;9.10;;;8.02;;
44270;SDS011;29963;44.594;11.368;2022-07-23T01:02:36;10.48;;;9.35;;
44270;SDS011;29963;44.594;11.368;2022-07-23T01:05:02;14.18;;;9.43;;
44270;SDS011;29963;44.594;11.368;2022-07-23T01:07:28;10.75;;;9.63;;
44270;SDS011;29963;44.594;11.368;2022-07-23T01:09:54;10.50;;;9.35;;
44270;SDS011;29963;44.594;11.368;2022-07-23T01:12:21;12.82;;;10.88;;
44270;SDS011;29963;44.594;11.368;2022-07-23T01:14:56;9.05;;;8.20;;
44270;SDS011;29963;44.594;11.368;2022-07-23T01:17:23;13.32;;;9.93;;
44270;SDS011;29963;44.594;11.368;2022-07-23T01:19:49;15.57;;;10.15;;
44270;SDS011;29963;44.594;11.368;2022-07-23T01:22:15;12.50;;;8.98;;
44270;SDS011;29963;44.594;11.368;2022-07-23T01:24:43;20.23;;;10.45;;
44270;SDS011;29963;44.594;11.368;2022-07-23T01:27:09;11.93;;;10.80;;
44270;SDS011;29963;44.594;11.368;2022-07-23T01:29:37;12.70;;;11.00;;
44270;SDS011;29963;44.594;11.368;2022-07-23T01:32:03;12.23;;;10.65;;
44270;SDS011;29963;44.594;11.368;2022-07-23T01:34:29;13.48;;;11.02;;
44270;SDS011;29963;44.594;11.368;2022-07-23T01:36:56;12.07;;;10.57;;
44270;SDS011;29963;44.594;11.368;2022-07-23T01:39:21;15.25;;;11.40;;
44270;SDS011;29963;44.594;11.368;2022-07-23T01:41:47;12.48;;;11.18;;
44270;SDS011;29963;44.594;11.368;2022-07-23T01:44:13;14.57;;;11.38;;
44270;SDS011;29963;44.594;11.368;2022-07-23T01:46:39;14.50;;;11.18;;
44270;SDS011;29963;44.594;11.368;2022-07-23T01:49:04;15.05;;;11.88;;
44270;SDS011;29963;44.594;11.368;2022-07-23T01:51:30;13.55;;;12.35;;
44270;SDS011;29963;44.594;11.368;2022-07-23T01:53:56;13.40;;;10.82;;
44270;SDS011;29963;44.594;11.368;2022-07-23T01:56:21;13.68;;;10.95;;
44270;SDS011;29963;44.594;11.368;2022-07-23T01:58:48;13.38;;;11.35;;
44270;SDS011;29963;44.594;11.368;2022-07-23T02:01:14;13.13;;;10.63;;
44270;SDS011;29963;44.594;11.368;2022-07-23T02:03:40;13.73;;;11.23;;
44270;SDS011;29963;44.594;11.368;2022-07-23T02:06:05;13.82;;;11.70;;
44270;SDS011;29963;44.594;11.368;2022-07-23T02:08:31;15.27;;;11.77;;
44270;SDS011;29963;44.594;11.368;2022-07-23T02:10:56;16.98;;;12.95;;
44270;SDS011;29963;44.594;11.368;2022-07-23T02:13:22;14.50;;;12.82;;
44270;SDS011;29963;44.594;11.368;2022-07-23T02:15:48;18.48;;;12.98;;
44270;SDS011;29963;44.594;11.368;2022-07-23T02:18:14;15.00;;;12.30;;
44270;SDS011;29963;44.594;11.368;2022-07-23T02:20:39;20.83;;;13.07;;
44270;SDS011;29963;44.594;11.368;2022-07-23T02:23:08;14.82;;;12.07;;
44270;SDS011;29963;44.594;11.368;2022-07-23T02:25:34;15.50;;;12.65;;
44270;SDS011;29963;44.594;11.368;2022-07-23T02:28:00;12.35;;;10.88;;
44270;SDS011;29963;44.594;11.368;2022-07-23T02:30:25;16.55;;;11.05;;
44270;SDS011;29963;44.594;11.368;2022-07-23T02:32:51;10.88;;;9.73;;
44270;SDS011;29963;44.594;11.368;2022-07-23T02:35:17;13.07;;;9.68;;
44270;SDS011;29963;44.594;11.368;2022-07-23T02:37:45;12.68;;;9.65;;
44270;SDS011;29963;44.594;11.368;2022-07-23T02:40:11;9.88;;;8.98;;
44270;SDS011;29963;44.594;11.368;2022-07-23T02:42:37;10.75;;;9.35;;
44270;SDS011;29963;44.594;11.368;2022-07-23T02:45:02;11.50;;;9.43;;
44270;SDS011;29963;44.594;11.368;2022-07-23T02:47:28;11.15;;;10.00;;
44270;SDS011;29963;44.594;11.368;2022-07-23T02:49:54;14.07;;;10.23;;
44270;SDS011;29963;44.594;11.368;2022-07-23T02:52:20;10.68;;;9.65;;
44270;SDS011;29963;44.594;11.368;2022-07-23T02:54:46;10.07;;;9.15;;
44270;SDS011;29963;44.594;11.368;2022-07-23T02:57:11;9.48;;;8.55;;
44270;SDS011;29963;44.594;11.368;2022-07-23T02:59:37;11.20;;;9.55;;
44270;SDS011;29963;44.594;11.368;2022-07-23T03:02:03;11.20;;;9.85;;
44270;SDS011;29963;44.594;11.368;2022-07-23T03:04:30;10.13;;;8.90;;
44270;SDS011;29963;44.594;11.368;2022-07-23T03:06:56;14.43;;;10.18;;
44270;SDS011;29963;44.594;11.368;2022-07-23T03:09:22;12.27;;;10.10;;
44270;SDS011;29963;44.594;11.368;2022-07-23T03:11:47;12.70;;;9.52;;
44270;SDS011;29963;44.594;11.368;2022-07-23T03:14:13;12.48;;;8.70;;
44270;SDS011;29963;44.594;11.368;2022-07-23T03:16:41;13.32;;;8.73;;
44270;SDS011;29963;44.594;11.368;2022-07-23T03:19:07;16.45;;;9.32;;
44270;SDS011;29963;44.594;11.368;2022-07-23T03:21:32;9.10;;;8.15;;
44270;SDS011;29963;44.594;11.368;2022-07-23T03:23:59;8.93;;;7.97;;
44270;SDS011;29963;44.594;11.368;2022-07-23T03:26:25;11.45;;;9.40;;
44270;SDS011;29963;44.594;11.368;2022-07-23T03:28:51;9.80;;;8.75;;
44270;SDS011;29963;44.594;11.368;2022-07-23T03:31:17;11.35;;;9.13;;
44270;SDS011;29963;44.594;11.368;2022-07-23T03:33:43;9.98;;;8.95;;
44270;SDS011;29963;44.594;11.368;2022-07-23T03:36:08;11.85;;;8.18;;
44270;SDS011;29963;44.594;11.368;2022-07-23T03:38:34;10.88;;;9.05;;
44270;SDS011;29963;44.594;11.368;2022-07-23T03:41:00;10.52;;;9.27;;
44270;SDS011;29963;44.594;11.368;2022-07-23T03:43:26;15.05;;;8.98;;
44270;SDS011;29963;44.594;11.368;2022-07-23T03:45:51;8.77;;;7.93;;
44270;SDS011;29963;44.594;11.368;2022-07-23T03:48:17;12.40;;;9.88;;
44270;SDS011;29963;44.594;11.368;2022-07-23T03:50:43;11.70;;;9.10;;
44270;SDS011;29963;44.594;11.368;2022-07-23T03:53:08;10.32;;;9.30;;
44270;SDS011;29963;44.594;11.368;2022-07-23T03:55:34;18.73;;;8.98;;
44270;SDS011;29963;44.594;11.368;2022-07-23T03:58:00;10.10;;;9.10;;
44270;SDS011;29963;44.594;11.368;2022-07-23T04:00:26;20.17;;;9.88;;
44270;SDS011;29963;44.594;11.368;2022-07-23T04:02:52;11.48;;;9.32;;
44270;SDS011;29963;44.594;11.368;2022-07-23T04:05:17;9.38;;;8.35;;
44270;SDS011;29963;44.594;11.368;2022-07-23T04:07:43;14.45;;;8.57;;
44270;SDS011;29963;44.594;11.368;2022-07-23T04:10:09;10.50;;;9.10;;
44270;SDS011;29963;44.594;11.368;2022-07-23T04:12:34;8.90;;;8.00;;
44270;SDS011;29963;44.594;11.368;2022-07-23T04:15:00;12.43;;;9.73;;
44270;SDS011;29963;44.594;11.368;2022-07-23T04:17:26;9.70;;;8.07;;
44270;SDS011;29963;44.594;11.368;2022-07-23T04:19:53;12.52;;;9.27;;
44270;SDS011;29963;44.594;11.368;2022-07-23T04:22:19;9.43;;;8.50;;
44270;SDS011;29963;44.594;11.368;2022-07-23T04:24:44;11.00;;;8.32;;
44270;SDS011;29963;44.594;11.368;2022-07-23T04:27:10;10.70;;;8.63;;
44270;SDS011;29963;44.594;11.368;2022-07-23T04:29:36;9.68;;;7.80;;
44270;SDS011;29963;44.594;11.368;2022-07-23T04:32:01;9.07;;;7.45;;
44270;SDS011;29963;44.594;11.368;2022-07-23T04:34:27;9.15;;;8.25;;
44270;SDS011;29963;44.594;11.368;2022-07-23T04:36:53;13.38;;;9.48;;
44270;SDS011;29963;44.594;11.368;2022-07-23T04:39:19;11.77;;;8.98;;
44270;SDS011;29963;44.594;11.368;2022-07-23T04:41:45;15.30;;;8.98;;
44270;SDS011;29963;44.594;11.368;2022-07-23T04:44:11;12.93;;;8.80;;
44270;SDS011;29963;44.594;11.368;2022-07-23T04:46:36;10.73;;;9.07;;
44270;SDS011;29963;44.594;11.368;2022-07-23T04:49:02;11.50;;;8.70;;
44270;SDS011;29963;44.594;11.368;2022-07-23T04:51:28;10.57;;;8.60;;
44270;SDS011;29963;44.594;11.368;2022-07-23T04:53:54;15.07;;;8.57;;
44270;SDS011;29963;44.594;11.368;2022-07-23T04:56:20;11.65;;;7.85;;
44270;SDS011;29963;44.594;11.368;2022-07-23T04:58:45;11.23;;;8.05;;
44270;SDS011;29963;44.594;11.368;2022-07-23T05:01:11;8.95;;;7.68;;
44270;SDS011;29963;44.594;11.368;2022-07-23T05:03:37;11.65;;;7.80;;
44270;SDS011;29963;44.594;11.368;2022-07-23T05:06:02;22.20;;;8.70;;
44270;SDS011;29963;44.594;11.368;2022-07-23T05:08:28;12.98;;;7.63;;
44270;SDS011;29963;44.594;11.368;2022-07-23T05:10:54;8.48;;;7.57;;
44270;SDS011;29963;44.594;11.368;2022-07-23T05:13:20;9.10;;;7.63;;
44270;SDS011;29963;44.594;11.368;2022-07-23T05:15:46;10.30;;;7.50;;
44270;SDS011;29963;44.594;11.368;2022-07-23T05:18:12;11.73;;;7.70;;
44270;SDS011;29963;44.594;11.368;2022-07-23T05:20:38;13.73;;;8.40;;
44270;SDS011;29963;44.594;11.368;2022-07-23T05:23:04;10.15;;;8.43;;
44270;SDS011;29963;44.594;11.368;2022-07-23T05:25:29;9.43;;;8.52;;
44270;SDS011;29963;44.594;11.368;2022-07-23T05:27:55;11.38;;;8.18;;
44270;SDS011;29963;44.594;11.368;2022-07-23T05:30:21;11.50;;;7.93;;
44270;SDS011;29963;44.594;11.368;2022-07-23T05:32:46;8.20;;;7.40;;
44270;SDS011;29963;44.594;11.368;2022-07-23T05:35:13;13.13;;;8.48;;
44270;SDS011;29963;44.594;11.368;2022-07-23T05:37:39;9.68;;;8.75;;
44270;SDS011;29963;44.594;11.368;2022-07-23T05:40:06;11.32;;;7.57;;
44270;SDS011;29963;44.594;11.368;2022-07-23T05:42:37;14.95;;;8.23;;
44270;SDS011;29963;44.594;11.368;2022-07-23T05:45:03;9.63;;;8.05;;
44270;SDS011;29963;44.594;11.368;2022-07-23T05:50:24;12.85;;;8.10;;
44270;SDS011;29963;44.594;11.368;2022-07-23T05:52:50;10.90;;;8.23;;
44270;SDS011;29963;44.594;11.368;2022-07-23T05:55:16;10.10;;;7.57;;
44270;SDS011;29963;44.594;11.368;2022-07-23T05:57:42;14.18;;;8.13;;
44270;SDS011;29963;44.594;11.368;2022-07-23T06:00:08;9.77;;;7.35;;
44270;SDS011;29963;44.594;11.368;2022-07-23T06:02:35;10.05;;;7.82;;
44270;SDS011;29963;44.594;11.368;2022-07-23T06:05:02;9.07;;;7.80;;
44270;SDS011;29963;44.594;11.368;2022-07-23T06:07:28;10.73;;;7.70;;
44270;SDS011;29963;44.594;11.368;2022-07-23T06:09:54;9.63;;;7.80;;
44270;SDS011;29963;44.594;11.368;2022-07-23T06:12:20;11.65;;;7.97;;
44270;SDS011;29963;44.594;11.368;2022-07-23T06:14:45;12.82;;;7.80;;
44270;SDS011;29963;44.594;11.368;2022-07-23T06:17:13;15.02;;;8.30;;
44270;SDS011;29963;44.594;11.368;2022-07-23T06:19:39;14.93;;;8.18;;
44270;SDS011;29963;44.594;11.368;2022-07-23T06:22:04;11.57;;;8.27;;
44270;SDS011;29963;44.594;11.368;2022-07-23T06:24:30;14.73;;;8.55;;
44270;SDS011;29963;44.594;11.368;2022-07-23T06:26:56;11.55;;;8.10;;
44270;SDS011;29963;44.594;11.368;2022-07-23T06:29:22;14.30;;;8.88;;
44270;SDS011;29963;44.594;11.368;2022-07-23T06:31:47;9.73;;;7.97;;
44270;SDS011;29963;44.594;11.368;2022-07-23T06:34:13;9.98;;;8.20;;
44270;SDS011;29963;44.594;11.368;2022-07-23T06:36:39;9.38;;;7.88;;
44270;SDS011;29963;44.594;11.368;2022-07-23T06:39:04;10.60;;;7.30;;
44270;SDS011;29963;44.594;11.368;2022-07-23T06:41:30;12.23;;;7.75;;
44270;SDS011;29963;44.594;11.368;2022-07-23T06:43:55;13.35;;;7.60;;
44270;SDS011;29963;44.594;11.368;2022-07-23T06:46:21;10.75;;;7.63;;
44270;SDS011;29963;44.594;11.368;2022-07-23T06:48:47;13.30;;;8.13;;
44270;SDS011;29963;44.594;11.368;2022-07-23T06:51:12;10.77;;;7.53;;
44270;SDS011;29963;44.594;11.368;2022-07-23T06:53:38;11.00;;;7.57;;
44270;SDS011;29963;44.594;11.368;2022-07-23T06:56:04;10.15;;;7.70;;
44270;SDS011;29963;44.594;11.368;2022-07-23T06:58:30;8.73;;;6.93;;
44270;SDS011;29963;44.594;11.368;2022-07-23T07:00:56;11.40;;;7.72;;
44270;SDS011;29963;44.594;11.368;2022-07-23T07:03:22;10.75;;;7.55;;
44270;SDS011;29963;44.594;11.368;2022-07-23T07:05:47;9.05;;;6.82;;
44270;SDS011;29963;44.594;11.368;2022-07-23T07:08:14;8.38;;;6.07;;
44270;SDS011;29963;44.594;11.368;2022-07-23T07:10:40;10.57;;;6.15;;
44270;SDS011;29963;44.594;11.368;2022-07-23T07:13:06;7.28;;;5.57;;
44270;SDS011;29963;44.594;11.368;2022-07-23T07:15:34;8.60;;;6.10;;
44270;SDS011;29963;44.594;11.368;2022-07-23T07:18:00;7.95;;;6.05;;
44270;SDS011;29963;44.594;11.368;2022-07-23T07:20:26;6.95;;;6.25;;
44270;SDS011;29963;44.594;11.368;2022-07-23T07:22:52;9.73;;;6.18;;
44270;SDS011;29963;44.594;11.368;2022-07-23T07:25:17;11.48;;;5.80;;
44270;SDS011;29963;44.594;11.368;2022-07-23T07:27:43;7.10;;;6.40;;
44270;SDS011;29963;44.594;11.368;2022-07-23T07:30:09;7.00;;;5.88;;
44270;SDS011;29963;44.594;11.368;2022-07-23T07:32:39;9.05;;;6.35;;
44270;SDS011;29963;44.594;11.368;2022-07-23T07:35:05;7.57;;;6.40;;
44270;SDS011;29963;44.594;11.368;2022-07-23T07:37:32;8.65;;;6.38;;
44270;SDS011;29963;44.594;11.368;2022-07-23T07:39:58;11.60;;;7.13;;
44270;SDS011;29963;44.594;11.368;2022-07-23T07:42:23;6.30;;;5.65;;
44270;SDS011;29963;44.594;11.368;2022-07-23T07:44:49;7.68;;;6.55;;
44270;SDS011;29963;44.594;11.368;2022-07-23T07:47:15;7.60;;;6.45;;
44270;SDS011;29963;44.594;11.368;2022-07-23T07:49:41;6.50;;;5.43;;
44270;SDS011;29963;44.594;11.368;2022-07-23T07:52:07;7.03;;;6.10;;
44270;SDS011;29963;44.594;11.368;2022-07-23T07:54:33;6.53;;;5.18;;
44270;SDS011;29963;44.594;11.368;2022-07-23T07:56:59;10.63;;;6.30;;
44270;SDS011;29963;44.594;11.368;2022-07-23T07:59:24;8.98;;;6.97;;
44270;SDS011;29963;44.594;11.368;2022-07-23T08:01:50;8.90;;;7.38;;
44270;SDS011;29963;44.594;11.368;2022-07-23T08:04:16;9.68;;;6.15;;
44270;SDS011;29963;44.594;11.368;2022-07-23T08:06:42;6.80;;;6.20;;
44270;SDS011;29963;44.594;11.368;2022-07-23T08:09:07;6.47;;;5.28;;
44270;SDS011;29963;44.594;11.368;2022-07-23T08:11:33;6.78;;;5.38;;
44270;SDS011;29963;44.594;11.368;2022-07-23T08:13:59;5.68;;;5.05;;
44270;SDS011;29963;44.594;11.368;2022-07-23T08:16:24;6.10;;;5.50;;
44270;SDS011;29963;44.594;11.368;2022-07-23T08:18:50;6.57;;;5.80;;
44270;SDS011;29963;44.594;11.368;2022-07-23T08:21:16;9.48;;;5.97;;
44270;SDS011;29963;44.594;11.368;2022-07-23T08:23:41;9.45;;;6.40;;
44270;SDS011;29963;44.594;11.368;2022-07-23T08:26:07;8.05;;;5.78;;
44270;SDS011;29963;44.594;11.368;2022-07-23T08:28:33;9.85;;;7.32;;
44270;SDS011;29963;44.594;11.368;2022-07-23T08:30:59;8.75;;;6.68;;
44270;SDS011;29963;44.594;11.368;2022-07-23T08:33:25;12.27;;;6.32;;
44270;SDS011;29963;44.594;11.368;2022-07-23T08:35:51;8.50;;;5.57;;
44270;SDS011;29963;44.594;11.368;2022-07-23T08:38:21;7.00;;;6.03;;
44270;SDS011;29963;44.594;11.368;2022-07-23T08:40:48;6.22;;;5.43;;
44270;SDS011;29963;44.594;11.368;2022-07-23T08:43:22;6.18;;;4.93;;
44270;SDS011;29963;44.594;11.368;2022-07-23T08:45:50;9.77;;;5.63;;
44270;SDS011;29963;44.594;11.368;2022-07-23T08:48:19;6.88;;;4.95;;
44270;SDS011;29963;44.594;11.368;2022-07-23T08:50:50;10.95;;;5.93;;
44270;SDS011;29963;44.594;11.368;2022-07-23T08:53:20;8.45;;;5.90;;
44270;SDS011;29963;44.594;11.368;2022-07-23T08:55:48;9.05;;;5.75;;
44270;SDS011;29963;44.594;11.368;2022-07-23T08:58:19;13.07;;;5.80;;
44270;SDS011;29963;44.594;11.368;2022-07-23T09:00:46;12.52;;;5.05;;
44270;SDS011;29963;44.594;11.368;2022-07-23T09:03:16;6.82;;;5.35;;
44270;SDS011;29963;44.594;11.368;2022-07-23T09:05:44;9.45;;;5.53;;
44270;SDS011;29963;44.594;11.368;2022-07-23T09:08:13;5.18;;;4.68;;
44270;SDS011;29963;44.594;11.368;2022-07-23T09:16:10;5.75;;;5.18;;
44270;SDS011;29963;44.594;11.368;2022-07-23T09:18:40;12.23;;;5.65;;
44270;SDS011;29963;44.594;11.368;2022-07-23T09:23:51;7.82;;;5.30;;
44270;SDS011;29963;44.594;11.368;2022-07-23T09:28:52;7.88;;;5.80;;
44270;SDS011;29963;44.594;11.368;2022-07-23T09:34:34;6.90;;;5.55;;
44270;SDS011;29963;44.594;11.368;2022-07-23T09:39:35;6.35;;;5.75;;
44270;SDS011;29963;44.594;11.368;2022-07-23T09:42:23;9.38;;;5.72;;
44270;SDS011;29963;44.594;11.368;2022-07-23T09:44:51;9.80;;;5.88;;
44270;SDS011;29963;44.594;11.368;2022-07-23T09:47:18;9.88;;;6.00;;
44270;SDS011;29963;44.594;11.368;2022-07-23T09:50:02;11.40;;;5.82;;
44270;SDS011;29963;44.594;11.368;2022-07-23T09:52:44;11.43;;;6.57;;
44270;SDS011;29963;44.594;11.368;2022-07-23T09:55:13;8.60;;;5.30;;
44270;SDS011;29963;44.594;11.368;2022-07-23T09:57:43;8.80;;;5.00;;
44270;SDS011;29963;44.594;11.368;2022-07-23T10:00:10;7.85;;;5.47;;
44270;SDS011;29963;44.594;11.368;2022-07-23T10:02:37;9.27;;;6.13;;
44270;SDS011;29963;44.594;11.368;2022-07-23T10:05:03;10.35;;;5.47;;
44270;SDS011;29963;44.594;11.368;2022-07-23T10:07:35;6.32;;;5.72;;
44270;SDS011;29963;44.594;11.368;2022-07-23T10:10:04;8.10;;;6.10;;
44270;SDS011;29963;44.594;11.368;2022-07-23T10:12:31;6.13;;;5.22;;
44270;SDS011;29963;44.594;11.368;2022-07-23T10:15:12;8.15;;;5.50;;
44270;SDS011;29963;44.594;11.368;2022-07-23T10:17:38;7.15;;;5.00;;
44270;SDS011;29963;44.594;11.368;2022-07-23T10:20:04;7.70;;;4.97;;
44270;SDS011;29963;44.594;11.368;2022-07-23T10:22:32;6.85;;;5.80;;
44270;SDS011;29963;44.594;11.368;2022-07-23T10:25:06;11.38;;;6.03;;
44270;SDS011;29963;44.594;11.368;2022-07-23T10:30:45;8.65;;;5.97;;
44270;SDS011;29963;44.594;11.368;2022-07-23T10:39:13;9.98;;;5.97;;
44270;SDS011;29963;44.594;11.368;2022-07-23T10:41:44;7.10;;;6.45;;
44270;SDS011;29963;44.594;11.368;2022-07-23T10:44:19;9.32;;;5.45;;
44270;SDS011;29963;44.594;11.368;2022-07-23T10:46:54;7.28;;;6.22;;
44270;SDS011;29963;44.594;11.368;2022-07-23T10:49:27;7.32;;;5.22;;
44270;SDS011;29963;44.594;11.368;2022-07-23T10:54:42;6.55;;;5.43;;
44270;SDS011;29963;44.594;11.368;2022-07-23T10:57:25;9.00;;;5.07;;
44270;SDS011;29963;44.594;11.368;2022-07-23T11:02:33;7.60;;;6.15;;
44270;SDS011;29963;44.594;11.368;2022-07-23T11:05:00;7.68;;;6.28;;
44270;SDS011;29963;44.594;11.368;2022-07-23T11:07:28;8.52;;;5.97;;
44270;SDS011;29963;44.594;11.368;2022-07-23T11:09:54;7.35;;;5.97;;
44270;SDS011;29963;44.594;11.368;2022-07-23T11:25:10;7.60;;;5.85;;
44270;SDS011;29963;44.594;11.368;2022-07-23T11:30:11;5.85;;;5.07;;
44270;SDS011;29963;44.594;11.368;2022-07-23T11:35:33;6.55;;;5.75;;
44270;SDS011;29963;44.594;11.368;2022-07-23T11:38:07;6.88;;;5.65;;
44270;SDS011;29963;44.594;11.368;2022-07-23T11:40:38;7.13;;;5.03;;
44270;SDS011;29963;44.594;11.368;2022-07-23T11:43:06;9.77;;;5.50;;
44270;SDS011;29963;44.594;11.368;2022-07-23T11:45:36;5.85;;;5.20;;
44270;SDS011;29963;44.594;11.368;2022-07-23T11:48:19;6.28;;;5.25;;
44270;SDS011;29963;44.594;11.368;2022-07-23T11:50:47;7.95;;;4.82;;
44270;SDS011;29963;44.594;11.368;2022-07-23T11:53:13;17.95;;;5.93;;
44270;SDS011;29963;44.594;11.368;2022-07-23T11:55:47;8.98;;;5.75;;
44270;SDS011;29963;44.594;11.368;2022-07-23T11:58:13;9.25;;;5.43;;
44270;SDS011;29963;44.594;11.368;2022-07-23T12:00:39;11.45;;;7.28;;
44270;SDS011;29963;44.594;11.368;2022-07-23T12:03:06;8.10;;;4.95;;
44270;SDS011;29963;44.594;11.368;2022-07-23T12:05:33;6.75;;;6.05;;
44270;SDS011;29963;44.594;11.368;2022-07-23T12:08:01;6.65;;;5.90;;
44270;SDS011;29963;44.594;11.368;2022-07-23T12:10:30;7.00;;;5.50;;
44270;SDS011;29963;44.594;11.368;2022-07-23T12:12:59;6.53;;;5.53;;
44270;SDS011;29963;44.594;11.368;2022-07-23T12:15:51;7.93;;;4.93;;
44270;SDS011;29963;44.594;11.368;2022-07-23T12:18:21;6.78;;;5.00;;
44270;SDS011;29963;44.594;11.368;2022-07-23T12:20:49;6.68;;;5.38;;
44270;SDS011;29963;44.594;11.368;2022-07-23T12:23:17;8.93;;;6.15;;
44270;SDS011;29963;44.594;11.368;2022-07-23T12:25:45;7.15;;;5.57;;
44270;SDS011;29963;44.594;11.368;2022-07-23T12:28:18;11.07;;;5.85;;
44270;SDS011;29963;44.594;11.368;2022-07-23T12:30:53;13.13;;;5.93;;
44270;SDS011;29963;44.594;11.368;2022-07-23T12:35:58;8.80;;;5.88;;
44270;SDS011;29963;44.594;11.368;2022-07-23T12:38:25;6.18;;;5.47;;
44270;SDS011;29963;44.594;11.368;2022-07-23T12:40:56;6.13;;;5.32;;
44270;SDS011;29963;44.594;11.368;2022-07-23T12:43:28;6.97;;;5.80;;
44270;SDS011;29963;44.594;11.368;2022-07-23T12:46:05;7.32;;;5.25;;
44270;SDS011;29963;44.594;11.368;2022-07-23T12:48:56;10.70;;;5.88;;
44270;SDS011;29963;44.594;11.368;2022-07-23T12:51:25;6.18;;;5.57;;
44270;SDS011;29963;44.594;11.368;2022-07-23T12:53:55;8.18;;;5.53;;
44270;SDS011;29963;44.594;11.368;2022-07-23T12:56:36;7.35;;;5.53;;
44270;SDS011;29963;44.594;11.368;2022-07-23T13:01:29;9.15;;;5.95;;
44270;SDS011;29963;44.594;11.368;2022-07-23T13:06:25;8.50;;;5.63;;
44270;SDS011;29963;44.594;11.368;2022-07-23T13:08:52;7.75;;;6.07;;
44270;SDS011;29963;44.594;11.368;2022-07-23T13:11:18;11.88;;;5.80;;
44270;SDS011;29963;44.594;11.368;2022-07-23T13:13:44;7.40;;;5.78;;
44270;SDS011;29963;44.594;11.368;2022-07-23T13:16:09;7.85;;;5.70;;
44270;SDS011;29963;44.594;11.368;2022-07-23T13:18:35;11.57;;;5.13;;
44270;SDS011;29963;44.594;11.368;2022-07-23T13:21:01;6.80;;;5.20;;
44270;SDS011;29963;44.594;11.368;2022-07-23T13:23:27;7.25;;;5.45;;
44270;SDS011;29963;44.594;11.368;2022-07-23T13:25:53;6.78;;;5.78;;
44270;SDS011;29963;44.594;11.368;2022-07-23T13:28:19;7.15;;;5.90;;
44270;SDS011;29963;44.594;11.368;2022-07-23T13:30:46;11.15;;;4.88;;
44270;SDS011;29963;44.594;11.368;2022-07-23T13:33:14;8.75;;;5.70;;
44270;SDS011;29963;44.594;11.368;2022-07-23T13:35:42;5.95;;;5.30;;
44270;SDS011;29963;44.594;11.368;2022-07-23T13:38:08;9.38;;;5.80;;
44270;SDS011;29963;44.594;11.368;2022-07-23T13:40:38;10.73;;;6.10;;
44270;SDS011;29963;44.594;11.368;2022-07-23T13:43:07;11.38;;;5.38;;
44270;SDS011;29963;44.594;11.368;2022-07-23T13:45:33;7.18;;;5.32;;
44270;SDS011;29963;44.594;11.368;2022-07-23T13:47:59;7.80;;;5.82;;
44270;SDS011;29963;44.594;11.368;2022-07-23T13:50:25;7.75;;;5.47;;
44270;SDS011;29963;44.594;11.368;2022-07-23T13:52:52;6.18;;;5.57;;
44270;SDS011;29963;44.594;11.368;2022-07-23T13:55:17;5.78;;;5.20;;
44270;SDS011;29963;44.594;11.368;2022-07-23T13:57:43;11.60;;;5.43;;
44270;SDS011;29963;44.594;11.368;2022-07-23T14:00:09;6.60;;;5.47;;
44270;SDS011;29963;44.594;11.368;2022-07-23T14:02:37;9.77;;;5.93;;
44270;SDS011;29963;44.594;11.368;2022-07-23T14:05:04;6.25;;;5.05;;
44270;SDS011;29963;44.594;11.368;2022-07-23T14:07:32;8.55;;;5.38;;
44270;SDS011;29963;44.594;11.368;2022-07-23T14:09:58;6.90;;;5.00;;
44270;SDS011;29963;44.594;11.368;2022-07-23T14:12:24;6.32;;;5.22;;
44270;SDS011;29963;44.594;11.368;2022-07-23T14:14:50;6.93;;;5.70;;
44270;SDS011;29963;44.594;11.368;2022-07-23T14:17:16;10.90;;;5.97;;
44270;SDS011;29963;44.594;11.368;2022-07-23T14:19:41;8.85;;;6.07;;
44270;SDS011;29963;44.594;11.368;2022-07-23T14:22:07;5.72;;;5.13;;
44270;SDS011;29963;44.594;11.368;2022-07-23T14:24:33;7.05;;;5.20;;
44270;SDS011;29963;44.594;11.368;2022-07-23T14:26:59;7.25;;;5.82;;
44270;SDS011;29963;44.594;11.368;2022-07-23T14:29:26;6.70;;;6.00;;
44270;SDS011;29963;44.594;11.368;2022-07-23T14:31:52;6.70;;;5.03;;
44270;SDS011;29963;44.594;11.368;2022-07-23T14:34:18;7.25;;;5.80;;
44270;SDS011;29963;44.594;11.368;2022-07-23T14:36:43;7.22;;;6.05;;
44270;SDS011;29963;44.594;11.368;2022-07-23T14:39:09;6.10;;;5.05;;
44270;SDS011;29963;44.594;11.368;2022-07-23T14:41:36;10.95;;;6.28;;
44270;SDS011;29963;44.594;11.368;2022-07-23T14:44:03;8.02;;;5.05;;
44270;SDS011;29963;44.594;11.368;2022-07-23T14:46:29;8.45;;;5.68;;
44270;SDS011;29963;44.594;11.368;2022-07-23T14:48:55;14.43;;;6.43;;
44270;SDS011;29963;44.594;11.368;2022-07-23T14:51:20;9.63;;;5.80;;
44270;SDS011;29963;44.594;11.368;2022-07-23T14:53:46;7.30;;;5.20;;
44270;SDS011;29963;44.594;11.368;2022-07-23T14:56:12;9.52;;;5.22;;
44270;SDS011;29963;44.594;11.368;2022-07-23T14:58:38;6.70;;;5.15;;
44270;SDS011;29963;44.594;11.368;2022-07-23T15:01:04;5.95;;;4.70;;
44270;SDS011;29963;44.594;11.368;2022-07-23T15:03:31;8.55;;;5.85;;
44270;SDS011;29963;44.594;11.368;2022-07-23T15:05:57;6.20;;;5.20;;
44270;SDS011;29963;44.594;11.368;2022-07-23T15:08:23;11.13;;;5.10;;
44270;SDS011;29963;44.594;11.368;2022-07-23T15:10:49;5.88;;;4.55;;
44270;SDS011;29963;44.594;11.368;2022-07-23T15:13:15;6.75;;;6.05;;
44270;SDS011;29963;44.594;11.368;2022-07-23T15:15:41;8.20;;;4.95;;
44270;SDS011;29963;44.594;11.368;2022-07-23T15:18:07;12.63;;;5.72;;
44270;SDS011;29963;44.594;11.368;2022-07-23T15:20:33;9.90;;;4.70;;
44270;SDS011;29963;44.594;11.368;2022-07-23T15:22:59;6.57;;;4.75;;
44270;SDS011;29963;44.594;11.368;2022-07-23T15:25:25;5.18;;;4.68;;